Buoy 43533

sailwx.info

Track history (hours):
 
Tides and Currents Weather Stations Pressure Air Temp Water Temp Dewpoint Dewpoint Depression Visibility Wind Speed Wind Dir Waves Ship Positions

Drifting buoy 43533

Last reported at 2015-May-16 23:00 UTC. Time now 2015-Aug-29 09:28 UTC.
Position N 19°03' W 104°19'.
Warning: this ship's position is months out of date.

Length 24 m.

Type: Fishing. MMSI: 412466549.

Date/timePositionNaut miles runAvg speedWind from/ knotsBaromVisibWave heightAir tempDewpointWater temp
2015-May-16 23:00N 19°03' W 104°19'0 0.0
2015-May-16 09:00N 19°03' W 104°19'0 0.0 27.5
2015-May-16 04:00N 19°03' W 104°19'0 0.1 29.3
2015-May-16 01:00N 19°03' W 104°18'0 0.0 31.6
2015-May-15 16:00N 19°03' W 104°18'0 0.1 35.6
2015-May-15 12:00N 19°03' W 104°18'0 0.1 26.1
2015-May-15 09:00N 19°03' W 104°18'0 0.0 26.8
2015-May-15 08:00N 19°03' W 104°18'0 0.0 27.2
2015-May-15 04:00N 19°03' W 104°18'0 0.0 28.7
2015-May-14 23:00N 19°03' W 104°18'0 0.0 35.7
2015-May-14 22:00N 19°03' W 104°18'0 0.0
2015-May-14 13:00N 19°03' W 104°18'0 0.2 25.4
2015-May-14 12:00N 19°03' W 104°18'0 0.1 25.5
2015-May-14 09:00N 19°03' W 104°18'0 0.1 26.1
2015-May-14 08:00N 19°03' W 104°18'0 0.1 26.9
2015-May-14 04:00N 19°03' W 104°18'1 0.3 28.9
2015-May-14 02:00N 19°03' W 104°18'1 0.8 29.5
2015-May-14 01:00N 19°03' W 104°18'0 0.1 30.3
2015-May-13 23:00N 19°03' W 104°18'1 0.5
2015-May-13 21:00N 19°03' W 104°17'1 0.1
2015-May-13 10:00N 19°03' W 104°18'0 0.2 26.1
2015-May-13 08:00N 19°03' W 104°19'1 0.1 26.0
2015-May-13 00:00N 19°03' W 104°17'16 5.3 26.5
2015-May-12 21:00N 18°47' W 104°21'0 0.0 29.3
2015-May-12 20:00N 18°47' W 104°21'4 1.3 29.5
2015-May-12 17:00N 18°45' W 104°17'5 0.7 29.5
2015-May-12 10:00N 18°43' W 104°13'4 1.8 28.9
2015-May-12 08:00N 18°40' W 104°10'3 2.7 28.9
2015-May-12 07:00N 18°42' W 104°12'4 0.9 28.9
2015-May-12 02:00N 18°39' W 104°09'1 0.7 29.1
2015-May-12 00:00N 18°38' W 104°08'1 1.4 29.4
2015-May-11 23:00N 18°36' W 104°07'6 1.1 29.6
2015-May-11 17:00N 18°31' W 104°03'1 0.6 29.2
2015-May-11 16:00N 18°31' W 104°03'3 0.9 28.9
2015-May-11 13:00N 18°29' W 104°01'2 2.0 28.8
2015-May-11 12:00N 18°27' W 103°60'1 1.2 28.8
2015-May-11 11:00N 18°27' W 103°59'0 0.3 28.8
2015-May-11 10:00N 18°27' W 103°59'1 0.7 28.8
2015-May-11 08:00N 18°26' W 103°58'0 0.3 28.8
2015-May-11 07:00N 18°26' W 103°58'3 1.6 28.8
2015-May-11 05:00N 18°23' W 103°56'1 0.7 28.9
2015-May-11 04:00N 18°22' W 103°56'2 1.8 28.9
2015-May-11 03:00N 18°21' W 103°54'3 1.0 28.9
2015-May-11 00:00N 18°20' W 103°52'2 1.2 29.1
2015-May-10 22:00N 18°18' W 103°50'2 0.5 29.3
2015-May-10 19:00N 18°17' W 103°49'3 3.1 29.3
2015-May-10 18:00N 18°14' W 103°47'0 0.0 29.4
2015-May-10 17:00N 18°14' W 103°47'1 0.6 29.0
2015-May-10 16:00N 18°14' W 103°47'2 2.0 28.9
2015-May-10 15:00N 18°13' W 103°45'1 0.3 28.8
2015-May-10 13:00N 18°12' W 103°45'2 1.0 28.7
2015-May-10 11:00N 18°11' W 103°44'2 1.7 28.8
2015-May-10 10:00N 18°09' W 103°43'0 0.0 28.8
2015-May-10 09:00N 18°09' W 103°43'0 0.3 28.8
2015-May-10 08:00N 18°09' W 103°43'0 0.0 28.8
2015-May-10 07:00N 18°09' W 103°43'4 1.9 28.9
2015-May-10 05:00N 18°06' W 103°41'2 2.2 29.0
2015-May-10 04:00N 18°05' W 103°40'3 1.0 29.0
2015-May-10 01:00N 18°02' W 103°38'2 1.7 29.2
2015-May-10 00:00N 18°02' W 103°36'1 0.8 29.3
2015-May-09 23:00N 18°01' W 103°36'1 1.1 29.3
2015-May-09 22:00N 18°00' W 103°35'1 0.6 29.3
2015-May-09 20:00N 17°60' W 103°34'0 0.0 29.7
2015-May-09 19:00N 17°60' W 103°34'3 1.4 29.8
2015-May-09 17:00N 17°59' W 103°31'2 1.6 29.2
2015-May-09 16:00N 17°58' W 103°29'2 2.3 28.8
2015-May-09 15:00N 17°57' W 103°27'1 0.6 28.6
2015-May-09 13:00N 17°56' W 103°26'0 0.1 28.6
2015-May-09 11:00N 17°56' W 103°27'2 2.1 28.6
2015-May-09 10:00N 17°55' W 103°25'4 0.6 28.6
2015-May-09 04:00N 17°53' W 103°21'5 1.0 28.6
2015-May-08 23:00N 17°52' W 103°17'1 1.1 28.7
2015-May-08 22:00N 17°51' W 103°15'2 1.5 28.8
2015-May-08 21:00N 17°50' W 103°14'0 0.0 28.7
2015-May-08 20:00N 17°50' W 103°14'5 1.2 28.7
2015-May-08 16:00N 17°49' W 103°09'5 0.9 28.6
2015-May-08 11:00N 17°47' W 103°05'0 0.0 28.6
2015-May-08 10:00N 17°47' W 103°05'3 1.5 28.6
2015-May-08 08:00N 17°46' W 103°02'0 0.0 28.6
2015-May-08 07:00N 17°46' W 103°02'5 0.6 28.7
2015-May-07 23:00N 17°42' W 102°58'5 0.8 29.0
2015-May-07 16:00N 17°39' W 102°54'3 0.9 28.9
2015-May-07 12:00N 17°36' W 102°52'4 1.4 28.8
2015-May-07 09:00N 17°33' W 102°49'1 0.1 28.9
2015-May-07 04:00N 17°33' W 102°49'1 1.2 28.9
2015-May-07 03:00N 17°32' W 102°48'1 0.5 29.0
2015-May-07 01:00N 17°31' W 102°47'1 1.4 29.1
2015-May-07 00:00N 17°30' W 102°47'0 0.1 29.1
2015-May-06 23:00N 17°30' W 102°47'   29.2
Track history (hours):
 
Tides and Currents Weather Stations Pressure Air Temp Water Temp Dewpoint Dewpoint Depression Visibility Wind Speed Wind Dir Waves Ship Positions

Drifting buoy 43533

Last reported at 2015-May-16 23:00 UTC. Time now 2015-Aug-29 09:28 UTC.
Position N 19°03' W 104°19'.
Warning: this ship's position is months out of date.

Length 24 m.

Type: Fishing. MMSI: 412466549.

Date/timePositionNaut miles runAvg speedWind from/ knotsBaromVisibWave heightAir tempDewpointWater temp
2015-May-16 23:00N 19°03' W 104°19'0 0.0
2015-May-16 09:00N 19°03' W 104°19'0 0.0 27.5
2015-May-16 04:00N 19°03' W 104°19'0 0.1 29.3
2015-May-16 01:00N 19°03' W 104°18'0 0.0 31.6
2015-May-15 16:00N 19°03' W 104°18'0 0.1 35.6
2015-May-15 12:00N 19°03' W 104°18'0 0.1 26.1
2015-May-15 09:00N 19°03' W 104°18'0 0.0 26.8
2015-May-15 08:00N 19°03' W 104°18'0 0.0 27.2
2015-May-15 04:00N 19°03' W 104°18'0 0.0 28.7
2015-May-14 23:00N 19°03' W 104°18'0 0.0 35.7
2015-May-14 22:00N 19°03' W 104°18'0 0.0
2015-May-14 13:00N 19°03' W 104°18'0 0.2 25.4
2015-May-14 12:00N 19°03' W 104°18'0 0.1 25.5
2015-May-14 09:00N 19°03' W 104°18'0 0.1 26.1
2015-May-14 08:00N 19°03' W 104°18'0 0.1 26.9
2015-May-14 04:00N 19°03' W 104°18'1 0.3 28.9
2015-May-14 02:00N 19°03' W 104°18'1 0.8 29.5
2015-May-14 01:00N 19°03' W 104°18'0 0.1 30.3
2015-May-13 23:00N 19°03' W 104°18'1 0.5
2015-May-13 21:00N 19°03' W 104°17'1 0.1
2015-May-13 10:00N 19°03' W 104°18'0 0.2 26.1
2015-May-13 08:00N 19°03' W 104°19'1 0.1 26.0
2015-May-13 00:00N 19°03' W 104°17'16 5.3 26.5
2015-May-12 21:00N 18°47' W 104°21'0 0.0 29.3
2015-May-12 20:00N 18°47' W 104°21'4 1.3 29.5
2015-May-12 17:00N 18°45' W 104°17'5 0.7 29.5
2015-May-12 10:00N 18°43' W 104°13'4 1.8 28.9
2015-May-12 08:00N 18°40' W 104°10'3 2.7 28.9
2015-May-12 07:00N 18°42' W 104°12'4 0.9 28.9
2015-May-12 02:00N 18°39' W 104°09'1 0.7 29.1
2015-May-12 00:00N 18°38' W 104°08'1 1.4 29.4
2015-May-11 23:00N 18°36' W 104°07'6 1.1 29.6
2015-May-11 17:00N 18°31' W 104°03'1 0.6 29.2
2015-May-11 16:00N 18°31' W 104°03'3 0.9 28.9
2015-May-11 13:00N 18°29' W 104°01'2 2.0 28.8
2015-May-11 12:00N 18°27' W 103°60'1 1.2 28.8
2015-May-11 11:00N 18°27' W 103°59'0 0.3 28.8
2015-May-11 10:00N 18°27' W 103°59'1 0.7 28.8
2015-May-11 08:00N 18°26' W 103°58'0 0.3 28.8
2015-May-11 07:00N 18°26' W 103°58'3 1.6 28.8
2015-May-11 05:00N 18°23' W 103°56'1 0.7 28.9
2015-May-11 04:00N 18°22' W 103°56'2 1.8 28.9
2015-May-11 03:00N 18°21' W 103°54'3 1.0 28.9
2015-May-11 00:00N 18°20' W 103°52'2 1.2 29.1
2015-May-10 22:00N 18°18' W 103°50'2 0.5 29.3
2015-May-10 19:00N 18°17' W 103°49'3 3.1 29.3
2015-May-10 18:00N 18°14' W 103°47'0 0.0 29.4
2015-May-10 17:00N 18°14' W 103°47'1 0.6 29.0
2015-May-10 16:00N 18°14' W 103°47'2 2.0 28.9
2015-May-10 15:00N 18°13' W 103°45'1 0.3 28.8
2015-May-10 13:00N 18°12' W 103°45'2 1.0 28.7
2015-May-10 11:00N 18°11' W 103°44'2 1.7 28.8
2015-May-10 10:00N 18°09' W 103°43'0 0.0 28.8
2015-May-10 09:00N 18°09' W 103°43'0 0.3 28.8
2015-May-10 08:00N 18°09' W 103°43'0 0.0 28.8
2015-May-10 07:00N 18°09' W 103°43'4 1.9 28.9
2015-May-10 05:00N 18°06' W 103°41'2 2.2 29.0
2015-May-10 04:00N 18°05' W 103°40'3 1.0 29.0
2015-May-10 01:00N 18°02' W 103°38'2 1.7 29.2
2015-May-10 00:00N 18°02' W 103°36'1 0.8 29.3
2015-May-09 23:00N 18°01' W 103°36'1 1.1 29.3
2015-May-09 22:00N 18°00' W 103°35'1 0.6 29.3
2015-May-09 20:00N 17°60' W 103°34'0 0.0 29.7
2015-May-09 19:00N 17°60' W 103°34'3 1.4 29.8
2015-May-09 17:00N 17°59' W 103°31'2 1.6 29.2
2015-May-09 16:00N 17°58' W 103°29'2 2.3 28.8
2015-May-09 15:00N 17°57' W 103°27'1 0.6 28.6
2015-May-09 13:00N 17°56' W 103°26'0 0.1 28.6
2015-May-09 11:00N 17°56' W 103°27'2 2.1 28.6
2015-May-09 10:00N 17°55' W 103°25'4 0.6 28.6
2015-May-09 04:00N 17°53' W 103°21'5 1.0 28.6
2015-May-08 23:00N 17°52' W 103°17'1 1.1 28.7
2015-May-08 22:00N 17°51' W 103°15'2 1.5 28.8
2015-May-08 21:00N 17°50' W 103°14'0 0.0 28.7
2015-May-08 20:00N 17°50' W 103°14'5 1.2 28.7
2015-May-08 16:00N 17°49' W 103°09'5 0.9 28.6
2015-May-08 11:00N 17°47' W 103°05'0 0.0 28.6
2015-May-08 10:00N 17°47' W 103°05'3 1.5 28.6
2015-May-08 08:00N 17°46' W 103°02'0 0.0 28.6
2015-May-08 07:00N 17°46' W 103°02'5 0.6 28.7
2015-May-07 23:00N 17°42' W 102°58'5 0.8 29.0
2015-May-07 16:00N 17°39' W 102°54'3 0.9 28.9
2015-May-07 12:00N 17°36' W 102°52'4 1.4 28.8
2015-May-07 09:00N 17°33' W 102°49'1 0.1 28.9
2015-May-07 04:00N 17°33' W 102°49'1 1.2 28.9
2015-May-07 03:00N 17°32' W 102°48'1 0.5 29.0
2015-May-07 01:00N 17°31' W 102°47'1 1.4 29.1
2015-May-07 00:00N 17°30' W 102°47'0 0.1 29.1
2015-May-06 23:00N 17°30' W 102°47'   29.2

Dump ship's entire track history